Alton, New Hampshire
Current Conditions -  °F | °C
As of 2:55 PM on Thursday 23 Oct 2014 (Local Time) from KLCI Reporting Station
Overcast Overcast  
Wind Chill: 50°   Ceiling: 1400
Heat Index: 50°   Visibility: 10mi
Dew Point: 45°   Wind: 10mph
Humidity: 82%   Direction: 50°NE
Pressure: 29.75"   Gusts: 17mph
Location:  43.45°N, 71.22°W
Report Text: KLCI 231855Z AUTO 05009G15KT 10SM OVC014 10/07 A2975 RMK AO1 P0003
Loading
Personal Weather Stations






























Interactive Weather Map
Tropical Storm Tracking
New forecast layout! Learn more

10-Day Weather Forecast

Advertisements
Track Severe Weather on mobile